TimeCET,TemperatureF,Dew PointF,Humidity,Sea Level PressureIn,VisibilityMPH,Wind Direction,Wind SpeedMPH,Gust SpeedMPH,PrecipitationIn,Events,Conditions,WindDirDegrees,DateUTC
12:00 AM,41.0,39.2,93,30.30,-9999.0,Variable,1.2,-,N/A,,Clear,0,2013-01-05 23:00:00
12:30 AM,44.6,42.8,93,30.30,-9999.0,South,1.2,-,N/A,,Clear,170,2013-01-05 23:30:00
1:00 AM,40,37,85,30.31,12,NE,2.3,,,,,50,2013-01-06 00:00:00
1:00 AM,41.0,39.2,93,30.30,-9999.0,Variable,1.2,-,N/A,,Clear,0,2013-01-06 00:00:00
1:30 AM,39.2,37.4,93,30.27,-9999.0,Variable,2.3,-,N/A,,Clear,0,2013-01-06 00:30:00
2:30 AM,41.0,37.4,87,30.27,-9999.0,Variable,1.2,-,N/A,,Clear,0,2013-01-06 01:30:00
3:00 AM,39.2,37.4,93,30.27,-9999.0,Variable,2.3,-,N/A,,Clear,0,2013-01-06 02:00:00
3:30 AM,39.2,37.4,93,30.27,-9999.0,ENE,2.3,-,N/A,,Clear,60,2013-01-06 02:30:00
4:00 AM,41.0,39.2,93,30.27,-9999.0,Variable,1.2,-,N/A,,Clear,0,2013-01-06 03:00:00
4:30 AM,39.2,37.4,93,30.27,-9999.0,Calm,Calm,-,N/A,,Clear,0,2013-01-06 03:30:00
5:30 AM,37.4,35.6,93,30.27,-9999.0,Variable,1.2,-,N/A,,Clear,0,2013-01-06 04:30:00
6:00 AM,39.2,35.6,87,30.27,-9999.0,Variable,1.2,-,N/A,,Clear,0,2013-01-06 05:00:00
6:30 AM,37.4,35.6,93,30.27,-9999.0,Variable,1.2,-,N/A,,Clear,0,2013-01-06 05:30:00
7:00 AM,35,33,91,30.29,12,Calm,Calm,,,,,,2013-01-06 06:00:00
7:00 AM,37.4,35.6,93,30.27,-9999.0,Variable,1.2,-,N/A,,Clear,0,2013-01-06 06:00:00
7:30 AM,37.4,35.6,93,30.27,-9999.0,ENE,3.5,-,N/A,,Clear,70,2013-01-06 06:30:00
8:00 AM,37.4,35.6,93,30.30,-9999.0,ENE,3.5,-,N/A,,Clear,60,2013-01-06 07:00:00
8:30 AM,37.4,35.6,93,30.30,-9999.0,Variable,2.3,-,N/A,,Clear,0,2013-01-06 07:30:00
9:00 AM,41.0,39.2,93,30.30,-9999.0,Variable,2.3,-,N/A,,Clear,0,2013-01-06 08:00:00
9:30 AM,42.8,41.0,93,30.33,-9999.0,NNE,4.6,-,N/A,,Clear,30,2013-01-06 08:30:00
10:00 AM,53.6,46.4,77,30.33,-9999.0,Calm,Calm,-,N/A,,Clear,0,2013-01-06 09:00:00
11:00 AM,59.0,46.4,63,30.33,-9999.0,Variable,2.3,-,N/A,,Clear,0,2013-01-06 10:00:00
11:30 AM,62.6,48.2,59,30.36,-9999.0,ENE,5.8,-,N/A,,Clear,70,2013-01-06 10:30:00
12:00 PM,64.4,44.6,49,30.33,-9999.0,Variable,1.2,-,N/A,,Clear,0,2013-01-06 11:00:00
12:30 PM,68.0,42.8,40,30.33,-9999.0,Calm,Calm,-,N/A,,Clear,0,2013-01-06 11:30:00
1:00 PM,65,46,38,30.32,19,WSW,6.9,,,,,240,2013-01-06 12:00:00
1:00 PM,64.4,50.0,59,30.30,-9999.0,WSW,5.8,-,N/A,,Clear,240,2013-01-06 12:00:00
1:30 PM,64.4,50.0,59,30.30,-9999.0,WSW,6.9,-,N/A,,Clear,240,2013-01-06 12:30:00
2:00 PM,62.6,50.0,63,30.30,-9999.0,SW,9.2,-,N/A,,Clear,230,2013-01-06 13:00:00
2:30 PM,62.6,48.2,59,30.30,-9999.0,SW,6.9,-,N/A,,Clear,230,2013-01-06 13:30:00
3:00 PM,62.6,50.0,63,30.30,-9999.0,SW,6.9,-,N/A,,Clear,230,2013-01-06 14:00:00
3:30 PM,62.6,51.8,68,30.30,-9999.0,SW,5.8,-,N/A,,Clear,230,2013-01-06 14:30:00
4:00 PM,62.6,53.6,72,30.30,-9999.0,WSW,5.8,-,N/A,,Clear,250,2013-01-06 15:00:00
4:30 PM,62.6,53.6,72,30.30,-9999.0,WSW,3.5,-,N/A,,Clear,240,2013-01-06 15:30:00
5:00 PM,60.8,53.6,77,30.27,-9999.0,WSW,3.5,-,N/A,,Clear,250,2013-01-06 16:00:00
5:30 PM,59.0,51.8,77,30.27,-9999.0,Variable,1.2,-,N/A,,Clear,0,2013-01-06 16:30:00
6:00 PM,57.2,51.8,82,30.27,-9999.0,Calm,Calm,-,N/A,,Clear,0,2013-01-06 17:00:00
6:30 PM,51.8,48.2,88,30.27,-9999.0,SE,2.3,-,N/A,,Clear,140,2013-01-06 17:30:00
7:00 PM,49,46,83,30.30,12,Calm,Calm,,,,,,2013-01-06 18:00:00
7:00 PM,50.0,48.2,94,30.27,-9999.0,Calm,Calm,-,N/A,,Clear,0,2013-01-06 18:00:00
7:30 PM,50.0,48.2,94,30.30,-9999.0,Calm,Calm,-,N/A,,Clear,0,2013-01-06 18:30:00
8:00 PM,48.2,46.4,93,30.27,-9999.0,NE,3.5,-,N/A,,Clear,50,2013-01-06 19:00:00
8:30 PM,46.4,44.6,93,30.27,-9999.0,Calm,Calm,-,N/A,,Clear,0,2013-01-06 19:30:00
9:00 PM,44.6,42.8,93,30.27,-9999.0,Variable,2.3,-,N/A,,Clear,0,2013-01-06 20:00:00
9:30 PM,44.6,42.8,93,30.27,-9999.0,NE,1.2,-,N/A,,Clear,40,2013-01-06 20:30:00
10:00 PM,44.6,42.8,93,30.30,-9999.0,Variable,1.2,-,N/A,,Clear,0,2013-01-06 21:00:00
10:30 PM,44.6,44.6,100,30.27,-9999.0,Calm,Calm,-,N/A,,Clear,0,2013-01-06 21:30:00
11:00 PM,41.0,41.0,100,30.30,-9999.0,Calm,Calm,-,N/A,,Clear,0,2013-01-06 22:00:00
11:30 PM,41.0,41.0,100,30.30,-9999.0,Calm,Calm,-,N/A,,Clear,0,2013-01-06 22:30:00